Page, Nebraska
Current Conditions -  °F | °C
As of 8:15 AM on Monday 20 Oct 2014 (Local Time) from KONL Reporting Station
Clear Clear  
Wind Chill: 41°   Ceiling: Unl
Heat Index: 41°   Visibility: 10mi
Dew Point: 37°   Wind: 3mph
Humidity: 86%   Direction: 320°NW
Pressure: 30.1"   Gusts: NA
Location:  42.4°N, 98.42°W
Report Text: KONL 201315Z AUTO 32003KT 10SM CLR 05/03 A3010 RMK AO2 T00480027
Loading
Personal Weather Stations






























Interactive Weather Map
Tropical Storm Tracking
New forecast layout! Learn more

10-Day Weather Forecast

Advertisements
Track Severe Weather on mobile